sensor_id;sensor_type;location;lat;lon;timestamp;P1;durP1;ratioP1;P2;durP2;ratioP2
61017;SDS011;48171;51.550;5.434;2023-06-22T00:00:50;16.27;;;7.57;;
61017;SDS011;48171;51.550;5.434;2023-06-22T00:03:17;12.30;;;6.55;;
61017;SDS011;48171;51.550;5.434;2023-06-22T00:05:43;13.30;;;7.13;;
61017;SDS011;48171;51.550;5.434;2023-06-22T00:08:08;12.77;;;6.68;;
61017;SDS011;48171;51.550;5.434;2023-06-22T00:10:34;17.30;;;6.13;;
61017;SDS011;48171;51.550;5.434;2023-06-22T00:13:00;13.15;;;6.28;;
61017;SDS011;48171;51.550;5.434;2023-06-22T00:15:25;12.57;;;6.70;;
61017;SDS011;48171;51.550;5.434;2023-06-22T00:17:50;11.10;;;6.63;;
61017;SDS011;48171;51.550;5.434;2023-06-22T00:20:16;13.25;;;6.55;;
61017;SDS011;48171;51.550;5.434;2023-06-22T00:22:43;11.15;;;6.88;;
61017;SDS011;48171;51.550;5.434;2023-06-22T00:25:09;15.15;;;7.88;;
61017;SDS011;48171;51.550;5.434;2023-06-22T00:27:35;12.73;;;7.35;;
61017;SDS011;48171;51.550;5.434;2023-06-22T00:30:01;14.07;;;7.45;;
61017;SDS011;48171;51.550;5.434;2023-06-22T00:32:26;12.88;;;6.97;;
61017;SDS011;48171;51.550;5.434;2023-06-22T00:34:52;12.35;;;6.38;;
61017;SDS011;48171;51.550;5.434;2023-06-22T00:37:17;14.20;;;7.45;;
61017;SDS011;48171;51.550;5.434;2023-06-22T00:39:43;12.75;;;7.43;;
61017;SDS011;48171;51.550;5.434;2023-06-22T00:42:08;13.63;;;7.95;;
61017;SDS011;48171;51.550;5.434;2023-06-22T00:44:34;15.45;;;8.35;;
61017;SDS011;48171;51.550;5.434;2023-06-22T00:47:00;17.15;;;8.10;;
61017;SDS011;48171;51.550;5.434;2023-06-22T00:49:25;13.57;;;7.15;;
61017;SDS011;48171;51.550;5.434;2023-06-22T00:51:51;14.77;;;7.68;;
61017;SDS011;48171;51.550;5.434;2023-06-22T00:54:17;12.50;;;7.82;;
61017;SDS011;48171;51.550;5.434;2023-06-22T00:56:49;14.60;;;7.50;;
61017;SDS011;48171;51.550;5.434;2023-06-22T00:59:17;13.80;;;7.97;;
61017;SDS011;48171;51.550;5.434;2023-06-22T01:01:43;15.50;;;7.78;;
61017;SDS011;48171;51.550;5.434;2023-06-22T01:04:09;13.98;;;8.10;;
61017;SDS011;48171;51.550;5.434;2023-06-22T01:06:35;13.73;;;8.30;;
61017;SDS011;48171;51.550;5.434;2023-06-22T01:09:40;14.60;;;7.82;;
61017;SDS011;48171;51.550;5.434;2023-06-22T01:12:19;18.45;;;8.88;;
61017;SDS011;48171;51.550;5.434;2023-06-22T01:14:55;16.52;;;8.70;;
61017;SDS011;48171;51.550;5.434;2023-06-22T01:17:27;14.77;;;8.90;;
61017;SDS011;48171;51.550;5.434;2023-06-22T01:19:54;16.77;;;9.52;;
61017;SDS011;48171;51.550;5.434;2023-06-22T01:22:20;16.92;;;9.93;;
61017;SDS011;48171;51.550;5.434;2023-06-22T01:24:57;17.38;;;9.18;;
61017;SDS011;48171;51.550;5.434;2023-06-22T01:27:50;18.67;;;9.23;;
61017;SDS011;48171;51.550;5.434;2023-06-22T01:33:12;17.20;;;9.70;;
61017;SDS011;48171;51.550;5.434;2023-06-22T01:35:39;17.67;;;9.30;;
61017;SDS011;48171;51.550;5.434;2023-06-22T01:38:06;17.50;;;9.55;;
61017;SDS011;48171;51.550;5.434;2023-06-22T01:40:32;15.48;;;8.93;;
61017;SDS011;48171;51.550;5.434;2023-06-22T01:43:00;19.27;;;9.65;;
61017;SDS011;48171;51.550;5.434;2023-06-22T01:45:26;18.95;;;9.55;;
61017;SDS011;48171;51.550;5.434;2023-06-22T01:47:52;18.20;;;9.43;;
61017;SDS011;48171;51.550;5.434;2023-06-22T01:50:17;21.02;;;9.50;;
61017;SDS011;48171;51.550;5.434;2023-06-22T01:52:43;17.35;;;9.07;;
61017;SDS011;48171;51.550;5.434;2023-06-22T01:55:09;17.73;;;9.38;;
61017;SDS011;48171;51.550;5.434;2023-06-22T01:57:34;17.13;;;9.45;;
61017;SDS011;48171;51.550;5.434;2023-06-22T02:00:03;18.05;;;10.43;;
61017;SDS011;48171;51.550;5.434;2023-06-22T02:02:37;17.77;;;10.00;;
61017;SDS011;48171;51.550;5.434;2023-06-22T02:05:10;16.35;;;10.10;;
61017;SDS011;48171;51.550;5.434;2023-06-22T02:07:56;15.85;;;9.00;;
61017;SDS011;48171;51.550;5.434;2023-06-22T02:10:27;20.42;;;10.75;;
61017;SDS011;48171;51.550;5.434;2023-06-22T02:12:54;21.17;;;11.90;;
61017;SDS011;48171;51.550;5.434;2023-06-22T02:15:21;21.95;;;12.48;;
61017;SDS011;48171;51.550;5.434;2023-06-22T02:17:47;22.67;;;12.95;;
61017;SDS011;48171;51.550;5.434;2023-06-22T02:20:13;25.55;;;14.38;;
61017;SDS011;48171;51.550;5.434;2023-06-22T02:22:39;23.33;;;12.40;;
61017;SDS011;48171;51.550;5.434;2023-06-22T02:25:04;25.25;;;13.10;;
61017;SDS011;48171;51.550;5.434;2023-06-22T02:27:30;25.45;;;12.65;;
61017;SDS011;48171;51.550;5.434;2023-06-22T02:29:55;21.92;;;12.30;;
61017;SDS011;48171;51.550;5.434;2023-06-22T02:32:21;24.15;;;12.13;;
61017;SDS011;48171;51.550;5.434;2023-06-22T02:34:47;20.50;;;11.50;;
61017;SDS011;48171;51.550;5.434;2023-06-22T02:37:12;22.92;;;12.95;;
61017;SDS011;48171;51.550;5.434;2023-06-22T02:39:40;24.45;;;12.85;;
61017;SDS011;48171;51.550;5.434;2023-06-22T02:42:06;24.55;;;11.88;;
61017;SDS011;48171;51.550;5.434;2023-06-22T02:44:31;22.30;;;11.55;;
61017;SDS011;48171;51.550;5.434;2023-06-22T02:46:57;27.48;;;14.48;;
61017;SDS011;48171;51.550;5.434;2023-06-22T02:49:23;32.33;;;14.63;;
61017;SDS011;48171;51.550;5.434;2023-06-22T02:51:48;29.95;;;15.93;;
61017;SDS011;48171;51.550;5.434;2023-06-22T02:54:14;27.90;;;15.38;;
61017;SDS011;48171;51.550;5.434;2023-06-22T02:56:39;26.50;;;15.15;;
61017;SDS011;48171;51.550;5.434;2023-06-22T02:59:05;30.42;;;15.05;;
61017;SDS011;48171;51.550;5.434;2023-06-22T03:01:31;29.60;;;16.20;;
61017;SDS011;48171;51.550;5.434;2023-06-22T03:04:04;35.05;;;17.10;;
61017;SDS011;48171;51.550;5.434;2023-06-22T03:06:30;28.80;;;16.38;;
61017;SDS011;48171;51.550;5.434;2023-06-22T03:08:59;29.92;;;17.27;;
61017;SDS011;48171;51.550;5.434;2023-06-22T03:11:26;31.13;;;17.00;;
61017;SDS011;48171;51.550;5.434;2023-06-22T03:13:51;28.55;;;15.70;;
61017;SDS011;48171;51.550;5.434;2023-06-22T03:16:18;28.70;;;15.75;;
61017;SDS011;48171;51.550;5.434;2023-06-22T03:18:43;31.48;;;16.38;;
61017;SDS011;48171;51.550;5.434;2023-06-22T03:21:09;28.95;;;16.63;;
61017;SDS011;48171;51.550;5.434;2023-06-22T03:23:34;33.17;;;16.75;;
61017;SDS011;48171;51.550;5.434;2023-06-22T03:26:01;28.98;;;16.33;;
61017;SDS011;48171;51.550;5.434;2023-06-22T03:28:26;31.52;;;17.20;;
61017;SDS011;48171;51.550;5.434;2023-06-22T03:30:51;31.33;;;17.23;;
61017;SDS011;48171;51.550;5.434;2023-06-22T03:33:17;28.58;;;15.90;;
61017;SDS011;48171;51.550;5.434;2023-06-22T03:35:42;35.30;;;17.65;;
61017;SDS011;48171;51.550;5.434;2023-06-22T03:38:07;31.25;;;17.20;;
61017;SDS011;48171;51.550;5.434;2023-06-22T03:40:33;30.23;;;16.92;;
61017;SDS011;48171;51.550;5.434;2023-06-22T03:42:58;33.30;;;17.10;;
61017;SDS011;48171;51.550;5.434;2023-06-22T03:45:23;28.83;;;16.55;;
61017;SDS011;48171;51.550;5.434;2023-06-22T03:47:48;29.25;;;17.17;;
61017;SDS011;48171;51.550;5.434;2023-06-22T03:50:14;35.35;;;16.73;;
61017;SDS011;48171;51.550;5.434;2023-06-22T03:52:39;29.98;;;15.70;;
61017;SDS011;48171;51.550;5.434;2023-06-22T03:55:05;30.00;;;16.52;;
61017;SDS011;48171;51.550;5.434;2023-06-22T03:57:32;30.73;;;16.02;;
61017;SDS011;48171;51.550;5.434;2023-06-22T03:59:57;31.50;;;16.55;;
61017;SDS011;48171;51.550;5.434;2023-06-22T04:02:23;29.45;;;16.63;;
61017;SDS011;48171;51.550;5.434;2023-06-22T04:04:48;31.63;;;16.27;;
61017;SDS011;48171;51.550;5.434;2023-06-22T04:07:13;28.85;;;16.25;;
61017;SDS011;48171;51.550;5.434;2023-06-22T04:09:39;31.13;;;16.88;;
61017;SDS011;48171;51.550;5.434;2023-06-22T04:12:04;30.63;;;16.17;;
61017;SDS011;48171;51.550;5.434;2023-06-22T04:14:30;32.78;;;16.88;;
61017;SDS011;48171;51.550;5.434;2023-06-22T04:16:55;32.83;;;17.30;;
61017;SDS011;48171;51.550;5.434;2023-06-22T04:19:20;32.95;;;16.50;;
61017;SDS011;48171;51.550;5.434;2023-06-22T04:21:46;31.98;;;16.67;;
61017;SDS011;48171;51.550;5.434;2023-06-22T04:24:13;30.90;;;17.05;;
61017;SDS011;48171;51.550;5.434;2023-06-22T04:26:39;31.08;;;16.25;;
61017;SDS011;48171;51.550;5.434;2023-06-22T04:29:06;33.45;;;17.20;;
61017;SDS011;48171;51.550;5.434;2023-06-22T04:31:33;32.17;;;16.42;;
61017;SDS011;48171;51.550;5.434;2023-06-22T04:34:01;34.67;;;17.35;;
61017;SDS011;48171;51.550;5.434;2023-06-22T04:36:38;33.70;;;17.40;;
61017;SDS011;48171;51.550;5.434;2023-06-22T04:39:09;31.75;;;16.73;;
61017;SDS011;48171;51.550;5.434;2023-06-22T04:41:37;34.58;;;17.23;;
61017;SDS011;48171;51.550;5.434;2023-06-22T04:44:07;34.78;;;18.25;;
61017;SDS011;48171;51.550;5.434;2023-06-22T04:46:33;29.80;;;15.63;;
61017;SDS011;48171;51.550;5.434;2023-06-22T04:49:02;34.35;;;18.42;;
61017;SDS011;48171;51.550;5.434;2023-06-22T04:51:31;37.70;;;18.10;;
61017;SDS011;48171;51.550;5.434;2023-06-22T04:53:56;33.75;;;17.70;;
61017;SDS011;48171;51.550;5.434;2023-06-22T04:56:25;38.03;;;19.60;;
61017;SDS011;48171;51.550;5.434;2023-06-22T04:58:53;33.28;;;18.05;;
61017;SDS011;48171;51.550;5.434;2023-06-22T05:01:21;35.95;;;18.65;;
61017;SDS011;48171;51.550;5.434;2023-06-22T05:03:47;37.75;;;19.67;;
61017;SDS011;48171;51.550;5.434;2023-06-22T05:06:13;39.17;;;20.92;;
61017;SDS011;48171;51.550;5.434;2023-06-22T05:08:39;38.50;;;20.17;;
61017;SDS011;48171;51.550;5.434;2023-06-22T05:11:04;35.75;;;18.92;;
61017;SDS011;48171;51.550;5.434;2023-06-22T05:13:30;36.67;;;19.50;;
61017;SDS011;48171;51.550;5.434;2023-06-22T05:15:55;40.33;;;19.92;;
61017;SDS011;48171;51.550;5.434;2023-06-22T05:18:26;42.28;;;20.80;;
61017;SDS011;48171;51.550;5.434;2023-06-22T05:20:52;41.20;;;21.17;;
61017;SDS011;48171;51.550;5.434;2023-06-22T05:23:20;40.70;;;21.65;;
61017;SDS011;48171;51.550;5.434;2023-06-22T05:25:45;40.20;;;21.17;;
61017;SDS011;48171;51.550;5.434;2023-06-22T05:28:11;39.60;;;21.40;;
61017;SDS011;48171;51.550;5.434;2023-06-22T05:30:36;40.92;;;22.45;;
61017;SDS011;48171;51.550;5.434;2023-06-22T05:33:02;44.78;;;21.98;;
61017;SDS011;48171;51.550;5.434;2023-06-22T05:35:27;43.65;;;23.25;;
61017;SDS011;48171;51.550;5.434;2023-06-22T05:37:52;42.15;;;22.88;;
61017;SDS011;48171;51.550;5.434;2023-06-22T05:40:17;45.70;;;23.83;;
61017;SDS011;48171;51.550;5.434;2023-06-22T05:42:43;51.97;;;23.02;;
61017;SDS011;48171;51.550;5.434;2023-06-22T05:45:08;44.95;;;23.30;;
61017;SDS011;48171;51.550;5.434;2023-06-22T05:47:34;50.17;;;23.65;;
61017;SDS011;48171;51.550;5.434;2023-06-22T05:49:59;42.58;;;22.00;;
61017;SDS011;48171;51.550;5.434;2023-06-22T05:52:24;43.70;;;22.75;;
61017;SDS011;48171;51.550;5.434;2023-06-22T05:54:50;45.78;;;23.60;;
61017;SDS011;48171;51.550;5.434;2023-06-22T05:57:15;47.15;;;24.13;;
61017;SDS011;48171;51.550;5.434;2023-06-22T05:59:40;46.55;;;24.00;;
61017;SDS011;48171;51.550;5.434;2023-06-22T06:02:06;45.85;;;24.05;;
61017;SDS011;48171;51.550;5.434;2023-06-22T06:04:31;43.67;;;22.65;;
61017;SDS011;48171;51.550;5.434;2023-06-22T06:06:56;47.90;;;24.20;;
61017;SDS011;48171;51.550;5.434;2023-06-22T06:09:22;45.97;;;24.05;;
61017;SDS011;48171;51.550;5.434;2023-06-22T06:11:47;49.80;;;24.40;;
61017;SDS011;48171;51.550;5.434;2023-06-22T06:14:12;44.90;;;24.05;;
61017;SDS011;48171;51.550;5.434;2023-06-22T06:16:37;44.13;;;23.58;;
61017;SDS011;48171;51.550;5.434;2023-06-22T06:19:03;44.83;;;23.88;;
61017;SDS011;48171;51.550;5.434;2023-06-22T06:21:28;43.90;;;24.38;;
61017;SDS011;48171;51.550;5.434;2023-06-22T06:23:53;46.38;;;25.00;;
61017;SDS011;48171;51.550;5.434;2023-06-22T06:26:19;47.58;;;23.90;;
61017;SDS011;48171;51.550;5.434;2023-06-22T06:28:51;48.03;;;24.95;;
61017;SDS011;48171;51.550;5.434;2023-06-22T06:31:16;46.10;;;24.80;;
61017;SDS011;48171;51.550;5.434;2023-06-22T06:33:42;51.65;;;24.15;;
61017;SDS011;48171;51.550;5.434;2023-06-22T06:36:08;45.30;;;24.13;;
61017;SDS011;48171;51.550;5.434;2023-06-22T06:38:33;48.80;;;25.15;;
61017;SDS011;48171;51.550;5.434;2023-06-22T06:40:58;43.88;;;24.83;;
61017;SDS011;48171;51.550;5.434;2023-06-22T06:43:24;48.13;;;25.00;;
61017;SDS011;48171;51.550;5.434;2023-06-22T06:45:49;49.30;;;26.70;;
61017;SDS011;48171;51.550;5.434;2023-06-22T06:48:15;49.15;;;25.55;;
61017;SDS011;48171;51.550;5.434;2023-06-22T06:50:40;48.83;;;25.90;;
61017;SDS011;48171;51.550;5.434;2023-06-22T06:53:05;47.70;;;24.95;;
61017;SDS011;48171;51.550;5.434;2023-06-22T06:55:31;48.38;;;24.40;;
61017;SDS011;48171;51.550;5.434;2023-06-22T06:57:57;49.30;;;25.30;;
61017;SDS011;48171;51.550;5.434;2023-06-22T07:00:24;47.03;;;24.75;;
61017;SDS011;48171;51.550;5.434;2023-06-22T07:02:50;45.90;;;25.05;;
61017;SDS011;48171;51.550;5.434;2023-06-22T07:05:16;46.58;;;26.42;;
61017;SDS011;48171;51.550;5.434;2023-06-22T07:07:41;47.13;;;26.95;;
61017;SDS011;48171;51.550;5.434;2023-06-22T07:10:07;48.42;;;25.98;;
61017;SDS011;48171;51.550;5.434;2023-06-22T07:12:33;47.30;;;26.17;;
61017;SDS011;48171;51.550;5.434;2023-06-22T07:15:03;50.65;;;25.20;;
61017;SDS011;48171;51.550;5.434;2023-06-22T07:17:30;48.28;;;27.20;;
61017;SDS011;48171;51.550;5.434;2023-06-22T07:19:55;47.72;;;26.38;;
61017;SDS011;48171;51.550;5.434;2023-06-22T07:22:21;47.65;;;26.23;;
61017;SDS011;48171;51.550;5.434;2023-06-22T07:24:46;45.47;;;25.90;;
61017;SDS011;48171;51.550;5.434;2023-06-22T07:27:11;48.53;;;25.98;;
61017;SDS011;48171;51.550;5.434;2023-06-22T07:29:37;51.40;;;26.25;;
61017;SDS011;48171;51.550;5.434;2023-06-22T07:32:04;46.38;;;25.75;;
61017;SDS011;48171;51.550;5.434;2023-06-22T07:34:30;44.08;;;24.65;;
61017;SDS011;48171;51.550;5.434;2023-06-22T07:36:55;47.80;;;24.98;;
61017;SDS011;48171;51.550;5.434;2023-06-22T07:39:20;52.38;;;25.85;;
61017;SDS011;48171;51.550;5.434;2023-06-22T07:44:16;47.17;;;25.70;;
61017;SDS011;48171;51.550;5.434;2023-06-22T07:46:41;49.80;;;26.35;;
61017;SDS011;48171;51.550;5.434;2023-06-22T07:49:06;46.85;;;25.98;;
61017;SDS011;48171;51.550;5.434;2023-06-22T07:51:33;50.63;;;27.23;;
61017;SDS011;48171;51.550;5.434;2023-06-22T07:53:59;48.72;;;26.52;;
61017;SDS011;48171;51.550;5.434;2023-06-22T07:56:25;51.40;;;26.08;;
61017;SDS011;48171;51.550;5.434;2023-06-22T07:58:50;55.17;;;28.02;;
61017;SDS011;48171;51.550;5.434;2023-06-22T08:01:15;53.28;;;28.05;;
61017;SDS011;48171;51.550;5.434;2023-06-22T08:03:41;53.58;;;28.58;;
61017;SDS011;48171;51.550;5.434;2023-06-22T08:06:07;51.35;;;28.17;;
61017;SDS011;48171;51.550;5.434;2023-06-22T08:08:34;49.45;;;28.52;;
61017;SDS011;48171;51.550;5.434;2023-06-22T08:11:00;49.45;;;27.95;;
61017;SDS011;48171;51.550;5.434;2023-06-22T08:13:25;55.47;;;28.50;;
61017;SDS011;48171;51.550;5.434;2023-06-22T08:15:50;56.72;;;27.92;;
61017;SDS011;48171;51.550;5.434;2023-06-22T08:18:16;48.40;;;27.67;;
61017;SDS011;48171;51.550;5.434;2023-06-22T08:23:16;53.15;;;28.27;;
61017;SDS011;48171;51.550;5.434;2023-06-22T08:25:42;54.45;;;27.80;;
61017;SDS011;48171;51.550;5.434;2023-06-22T08:28:07;50.90;;;28.60;;
61017;SDS011;48171;51.550;5.434;2023-06-22T08:30:32;52.35;;;27.67;;
61017;SDS011;48171;51.550;5.434;2023-06-22T08:32:58;50.00;;;26.33;;
61017;SDS011;48171;51.550;5.434;2023-06-22T08:35:23;48.92;;;25.42;;
61017;SDS011;48171;51.550;5.434;2023-06-22T08:37:49;46.25;;;25.45;;
61017;SDS011;48171;51.550;5.434;2023-06-22T08:40:17;44.30;;;25.88;;
61017;SDS011;48171;51.550;5.434;2023-06-22T08:42:44;41.78;;;23.65;;
61017;SDS011;48171;51.550;5.434;2023-06-22T08:45:10;39.08;;;23.02;;
61017;SDS011;48171;51.550;5.434;2023-06-22T08:47:36;38.55;;;20.90;;
61017;SDS011;48171;51.550;5.434;2023-06-22T08:50:01;41.28;;;20.85;;
61017;SDS011;48171;51.550;5.434;2023-06-22T08:52:29;34.67;;;18.95;;
61017;SDS011;48171;51.550;5.434;2023-06-22T08:54:55;33.28;;;20.17;;
61017;SDS011;48171;51.550;5.434;2023-06-22T08:57:21;39.28;;;20.02;;
61017;SDS011;48171;51.550;5.434;2023-06-22T08:59:46;35.58;;;19.55;;
61017;SDS011;48171;51.550;5.434;2023-06-22T09:02:11;30.58;;;17.48;;
61017;SDS011;48171;51.550;5.434;2023-06-22T09:04:37;33.20;;;18.02;;
61017;SDS011;48171;51.550;5.434;2023-06-22T09:07:02;39.83;;;18.85;;
61017;SDS011;48171;51.550;5.434;2023-06-22T09:09:28;31.00;;;17.42;;
61017;SDS011;48171;51.550;5.434;2023-06-22T09:11:53;30.98;;;16.77;;
61017;SDS011;48171;51.550;5.434;2023-06-22T09:14:18;31.00;;;15.52;;
61017;SDS011;48171;51.550;5.434;2023-06-22T09:16:43;25.42;;;16.00;;
61017;SDS011;48171;51.550;5.434;2023-06-22T09:19:09;32.47;;;15.25;;
61017;SDS011;48171;51.550;5.434;2023-06-22T09:21:35;34.50;;;16.35;;
61017;SDS011;48171;51.550;5.434;2023-06-22T09:24:01;32.45;;;15.90;;
61017;SDS011;48171;51.550;5.434;2023-06-22T09:26:27;30.90;;;16.08;;
61017;SDS011;48171;51.550;5.434;2023-06-22T09:28:52;28.80;;;15.82;;
61017;SDS011;48171;51.550;5.434;2023-06-22T09:31:18;27.60;;;16.50;;
61017;SDS011;48171;51.550;5.434;2023-06-22T09:33:50;27.58;;;16.05;;
61017;SDS011;48171;51.550;5.434;2023-06-22T09:36:16;30.00;;;16.25;;
61017;SDS011;48171;51.550;5.434;2023-06-22T09:38:42;27.48;;;16.55;;
61017;SDS011;48171;51.550;5.434;2023-06-22T09:41:07;27.17;;;16.63;;
61017;SDS011;48171;51.550;5.434;2023-06-22T09:43:32;32.15;;;16.92;;
61017;SDS011;48171;51.550;5.434;2023-06-22T09:46:00;27.02;;;16.15;;
61017;SDS011;48171;51.550;5.434;2023-06-22T09:48:27;28.42;;;16.67;;
61017;SDS011;48171;51.550;5.434;2023-06-22T09:50:53;29.42;;;16.30;;
61017;SDS011;48171;51.550;5.434;2023-06-22T09:53:18;26.83;;;16.58;;
61017;SDS011;48171;51.550;5.434;2023-06-22T09:55:43;29.67;;;16.88;;
61017;SDS011;48171;51.550;5.434;2023-06-22T09:58:08;28.80;;;17.65;;
61017;SDS011;48171;51.550;5.434;2023-06-22T10:00:34;28.52;;;16.30;;
61017;SDS011;48171;51.550;5.434;2023-06-22T10:02:59;31.70;;;17.17;;
61017;SDS011;48171;51.550;5.434;2023-06-22T10:05:25;30.30;;;18.15;;
61017;SDS011;48171;51.550;5.434;2023-06-22T10:07:50;33.28;;;18.60;;
61017;SDS011;48171;51.550;5.434;2023-06-22T10:10:15;28.95;;;18.05;;
61017;SDS011;48171;51.550;5.434;2023-06-22T10:12:48;32.65;;;19.35;;
61017;SDS011;48171;51.550;5.434;2023-06-22T10:15:19;32.17;;;19.40;;
61017;SDS011;48171;51.550;5.434;2023-06-22T10:17:46;36.30;;;19.83;;
61017;SDS011;48171;51.550;5.434;2023-06-22T10:20:12;34.47;;;19.90;;
61017;SDS011;48171;51.550;5.434;2023-06-22T10:22:38;35.00;;;20.88;;
61017;SDS011;48171;51.550;5.434;2023-06-22T10:25:06;36.15;;;21.08;;
61017;SDS011;48171;51.550;5.434;2023-06-22T10:27:32;33.10;;;20.48;;
61017;SDS011;48171;51.550;5.434;2023-06-22T10:29:57;35.05;;;21.10;;
61017;SDS011;48171;51.550;5.434;2023-06-22T10:32:22;36.20;;;21.15;;
61017;SDS011;48171;51.550;5.434;2023-06-22T10:34:47;35.08;;;20.80;;
61017;SDS011;48171;51.550;5.434;2023-06-22T10:37:13;36.42;;;21.15;;
61017;SDS011;48171;51.550;5.434;2023-06-22T10:39:38;34.85;;;20.77;;
61017;SDS011;48171;51.550;5.434;2023-06-22T10:42:03;34.22;;;19.65;;
61017;SDS011;48171;51.550;5.434;2023-06-22T10:44:29;35.53;;;21.10;;
61017;SDS011;48171;51.550;5.434;2023-06-22T10:46:54;37.13;;;21.05;;
61017;SDS011;48171;51.550;5.434;2023-06-22T10:49:19;34.17;;;20.77;;
61017;SDS011;48171;51.550;5.434;2023-06-22T10:51:44;38.58;;;20.88;;
61017;SDS011;48171;51.550;5.434;2023-06-22T10:54:10;38.00;;;22.13;;
61017;SDS011;48171;51.550;5.434;2023-06-22T10:56:35;40.47;;;22.63;;
61017;SDS011;48171;51.550;5.434;2023-06-22T10:59:00;38.78;;;22.00;;
61017;SDS011;48171;51.550;5.434;2023-06-22T11:04:02;38.47;;;23.27;;
61017;SDS011;48171;51.550;5.434;2023-06-22T11:06:27;45.08;;;25.83;;
61017;SDS011;48171;51.550;5.434;2023-06-22T11:08:52;48.63;;;27.67;;
61017;SDS011;48171;51.550;5.434;2023-06-22T11:11:18;46.13;;;27.13;;
61017;SDS011;48171;51.550;5.434;2023-06-22T11:13:43;48.72;;;27.55;;
61017;SDS011;48171;51.550;5.434;2023-06-22T11:16:09;54.05;;;29.15;;
61017;SDS011;48171;51.550;5.434;2023-06-22T11:18:35;47.10;;;27.48;;
61017;SDS011;48171;51.550;5.434;2023-06-22T11:21:00;49.38;;;28.15;;
61017;SDS011;48171;51.550;5.434;2023-06-22T11:23:25;50.33;;;29.35;;
61017;SDS011;48171;51.550;5.434;2023-06-22T11:25:52;51.15;;;29.55;;
61017;SDS011;48171;51.550;5.434;2023-06-22T11:28:18;51.55;;;30.33;;
61017;SDS011;48171;51.550;5.434;2023-06-22T11:30:43;54.70;;;31.10;;
61017;SDS011;48171;51.550;5.434;2023-06-22T11:33:08;57.38;;;30.77;;
61017;SDS011;48171;51.550;5.434;2023-06-22T11:35:34;54.00;;;30.27;;
61017;SDS011;48171;51.550;5.434;2023-06-22T11:37:59;57.50;;;32.28;;
61017;SDS011;48171;51.550;5.434;2023-06-22T11:40:24;58.88;;;31.55;;
61017;SDS011;48171;51.550;5.434;2023-06-22T11:42:50;57.42;;;31.50;;
61017;SDS011;48171;51.550;5.434;2023-06-22T11:45:15;64.28;;;32.53;;
61017;SDS011;48171;51.550;5.434;2023-06-22T11:47:42;58.92;;;33.63;;
61017;SDS011;48171;51.550;5.434;2023-06-22T11:50:07;55.08;;;30.92;;
61017;SDS011;48171;51.550;5.434;2023-06-22T11:52:33;67.38;;;33.72;;
61017;SDS011;48171;51.550;5.434;2023-06-22T11:55:00;59.75;;;33.30;;
61017;SDS011;48171;51.550;5.434;2023-06-22T11:57:28;59.95;;;32.85;;
61017;SDS011;48171;51.550;5.434;2023-06-22T11:59:53;57.25;;;33.35;;
61017;SDS011;48171;51.550;5.434;2023-06-22T12:02:19;52.83;;;31.88;;
61017;SDS011;48171;51.550;5.434;2023-06-22T12:04:44;54.70;;;32.63;;
61017;SDS011;48171;51.550;5.434;2023-06-22T12:07:09;64.60;;;35.22;;
61017;SDS011;48171;51.550;5.434;2023-06-22T12:09:34;55.70;;;31.40;;
61017;SDS011;48171;51.550;5.434;2023-06-22T12:12:00;62.17;;;35.38;;
61017;SDS011;48171;51.550;5.434;2023-06-22T12:14:25;62.25;;;34.50;;
61017;SDS011;48171;51.550;5.434;2023-06-22T12:16:50;63.28;;;33.55;;
61017;SDS011;48171;51.550;5.434;2023-06-22T12:19:15;58.42;;;34.53;;
61017;SDS011;48171;51.550;5.434;2023-06-22T12:21:41;59.95;;;35.33;;
61017;SDS011;48171;51.550;5.434;2023-06-22T12:24:06;59.13;;;35.47;;
61017;SDS011;48171;51.550;5.434;2023-06-22T12:26:32;53.95;;;33.70;;
61017;SDS011;48171;51.550;5.434;2023-06-22T12:28:57;56.03;;;33.08;;
61017;SDS011;48171;51.550;5.434;2023-06-22T12:31:22;55.20;;;32.50;;
61017;SDS011;48171;51.550;5.434;2023-06-22T12:33:48;52.53;;;31.88;;
61017;SDS011;48171;51.550;5.434;2023-06-22T12:36:13;42.97;;;28.83;;
61017;SDS011;48171;51.550;5.434;2023-06-22T12:38:38;47.22;;;28.67;;
61017;SDS011;48171;51.550;5.434;2023-06-22T12:41:03;46.83;;;28.40;;
61017;SDS011;48171;51.550;5.434;2023-06-22T12:43:29;49.05;;;28.85;;
61017;SDS011;48171;51.550;5.434;2023-06-22T12:45:54;53.35;;;30.23;;
61017;SDS011;48171;51.550;5.434;2023-06-22T12:48:19;45.97;;;27.83;;
61017;SDS011;48171;51.550;5.434;2023-06-22T12:50:45;54.63;;;31.23;;
61017;SDS011;48171;51.550;5.434;2023-06-22T12:53:11;46.70;;;29.70;;
61017;SDS011;48171;51.550;5.434;2023-06-22T12:55:37;55.45;;;32.92;;
61017;SDS011;48171;51.550;5.434;2023-06-22T12:58:02;53.75;;;30.52;;
61017;SDS011;48171;51.550;5.434;2023-06-22T13:00:28;50.88;;;31.20;;
61017;SDS011;48171;51.550;5.434;2023-06-22T13:02:53;55.60;;;30.80;;
61017;SDS011;48171;51.550;5.434;2023-06-22T13:05:18;46.40;;;28.90;;
61017;SDS011;48171;51.550;5.434;2023-06-22T13:07:44;56.55;;;30.73;;
61017;SDS011;48171;51.550;5.434;2023-06-22T13:10:10;48.47;;;28.52;;
61017;SDS011;48171;51.550;5.434;2023-06-22T13:12:35;44.75;;;26.92;;
61017;SDS011;48171;51.550;5.434;2023-06-22T13:15:01;42.47;;;27.85;;
61017;SDS011;48171;51.550;5.434;2023-06-22T13:17:28;42.72;;;26.45;;
61017;SDS011;48171;51.550;5.434;2023-06-22T13:19:53;44.28;;;26.42;;
61017;SDS011;48171;51.550;5.434;2023-06-22T13:22:34;41.45;;;25.83;;
61017;SDS011;48171;51.550;5.434;2023-06-22T13:25:05;42.63;;;26.05;;
61017;SDS011;48171;51.550;5.434;2023-06-22T13:27:31;41.15;;;25.05;;
61017;SDS011;48171;51.550;5.434;2023-06-22T13:29:57;45.00;;;25.33;;
61017;SDS011;48171;51.550;5.434;2023-06-22T13:32:22;42.47;;;25.48;;
61017;SDS011;48171;51.550;5.434;2023-06-22T13:34:47;46.20;;;25.92;;
61017;SDS011;48171;51.550;5.434;2023-06-22T13:37:13;39.83;;;24.35;;
61017;SDS011;48171;51.550;5.434;2023-06-22T13:39:38;44.38;;;25.48;;
61017;SDS011;48171;51.550;5.434;2023-06-22T13:42:03;42.03;;;24.77;;
61017;SDS011;48171;51.550;5.434;2023-06-22T13:44:29;43.92;;;25.95;;
61017;SDS011;48171;51.550;5.434;2023-06-22T13:46:54;41.30;;;25.67;;
61017;SDS011;48171;51.550;5.434;2023-06-22T13:49:20;39.85;;;26.48;;
61017;SDS011;48171;51.550;5.434;2023-06-22T13:51:46;43.70;;;27.45;;
61017;SDS011;48171;51.550;5.434;2023-06-22T13:54:13;41.65;;;26.40;;
61017;SDS011;48171;51.550;5.434;2023-06-22T13:56:38;40.15;;;27.13;;
61017;SDS011;48171;51.550;5.434;2023-06-22T13:59:03;43.67;;;26.65;;
61017;SDS011;48171;51.550;5.434;2023-06-22T14:01:29;41.90;;;27.05;;
61017;SDS011;48171;51.550;5.434;2023-06-22T14:03:54;45.72;;;28.35;;
61017;SDS011;48171;51.550;5.434;2023-06-22T14:06:19;45.55;;;27.52;;
61017;SDS011;48171;51.550;5.434;2023-06-22T14:08:44;46.20;;;29.00;;
61017;SDS011;48171;51.550;5.434;2023-06-22T14:11:10;46.35;;;27.83;;
61017;SDS011;48171;51.550;5.434;2023-06-22T14:13:35;44.28;;;28.13;;
61017;SDS011;48171;51.550;5.434;2023-06-22T14:16:00;46.50;;;28.85;;
61017;SDS011;48171;51.550;5.434;2023-06-22T14:18:26;46.75;;;28.30;;
61017;SDS011;48171;51.550;5.434;2023-06-22T14:20:51;42.95;;;27.98;;
61017;SDS011;48171;51.550;5.434;2023-06-22T14:23:16;42.38;;;27.70;;
61017;SDS011;48171;51.550;5.434;2023-06-22T14:25:41;45.90;;;27.85;;
61017;SDS011;48171;51.550;5.434;2023-06-22T14:28:07;44.10;;;27.60;;